sensor_id;sensor_type;location;lat;lon;timestamp;P1;durP1;ratioP1;P2;durP2;ratioP2
41964;SDS011;50120;53.250;8.702;2022-08-20T00:01:03;6.35;;;4.15;;
41964;SDS011;50120;53.250;8.702;2022-08-20T00:03:32;6.50;;;4.80;;
41964;SDS011;50120;53.250;8.702;2022-08-20T00:08:33;11.20;;;6.95;;
41964;SDS011;50120;53.250;8.702;2022-08-20T00:11:00;9.77;;;6.63;;
41964;SDS011;50120;53.250;8.702;2022-08-20T00:13:29;12.43;;;7.43;;
41964;SDS011;50120;53.250;8.702;2022-08-20T00:15:57;11.02;;;7.82;;
41964;SDS011;50120;53.250;8.702;2022-08-20T00:18:23;13.30;;;8.40;;
41964;SDS011;50120;53.250;8.702;2022-08-20T00:20:51;13.88;;;7.88;;
41964;SDS011;50120;53.250;8.702;2022-08-20T00:23:21;13.00;;;9.00;;
41964;SDS011;50120;53.250;8.702;2022-08-20T00:25:51;13.55;;;8.57;;
41964;SDS011;50120;53.250;8.702;2022-08-20T00:28:17;12.95;;;8.57;;
41964;SDS011;50120;53.250;8.702;2022-08-20T00:30:43;13.75;;;8.15;;
41964;SDS011;50120;53.250;8.702;2022-08-20T00:33:13;15.23;;;8.85;;
41964;SDS011;50120;53.250;8.702;2022-08-20T00:35:43;14.60;;;9.55;;
41964;SDS011;50120;53.250;8.702;2022-08-20T00:38:11;13.52;;;9.27;;
41964;SDS011;50120;53.250;8.702;2022-08-20T00:40:39;15.23;;;9.80;;
41964;SDS011;50120;53.250;8.702;2022-08-20T00:43:22;15.15;;;9.60;;
41964;SDS011;50120;53.250;8.702;2022-08-20T00:46:14;13.27;;;9.40;;
41964;SDS011;50120;53.250;8.702;2022-08-20T00:48:44;11.68;;;8.38;;
41964;SDS011;50120;53.250;8.702;2022-08-20T00:54:01;10.25;;;7.20;;
41964;SDS011;50120;53.250;8.702;2022-08-20T00:56:36;9.80;;;6.22;;
41964;SDS011;50120;53.250;8.702;2022-08-20T00:59:05;8.35;;;6.00;;
41964;SDS011;50120;53.250;8.702;2022-08-20T01:01:35;7.03;;;5.07;;
41964;SDS011;50120;53.250;8.702;2022-08-20T01:04:05;7.07;;;5.20;;
41964;SDS011;50120;53.250;8.702;2022-08-20T01:06:31;8.85;;;4.93;;
41964;SDS011;50120;53.250;8.702;2022-08-20T01:08:57;8.43;;;4.53;;
41964;SDS011;50120;53.250;8.702;2022-08-20T01:11:26;9.68;;;5.10;;
41964;SDS011;50120;53.250;8.702;2022-08-20T01:14:00;7.90;;;5.25;;
41964;SDS011;50120;53.250;8.702;2022-08-20T01:16:47;7.82;;;4.95;;
41964;SDS011;50120;53.250;8.702;2022-08-20T01:19:19;7.90;;;5.65;;
41964;SDS011;50120;53.250;8.702;2022-08-20T01:21:50;11.65;;;6.50;;
41964;SDS011;50120;53.250;8.702;2022-08-20T01:24:21;10.65;;;6.63;;
41964;SDS011;50120;53.250;8.702;2022-08-20T01:26:54;9.68;;;6.72;;
41964;SDS011;50120;53.250;8.702;2022-08-20T01:29:24;12.40;;;7.57;;
41964;SDS011;50120;53.250;8.702;2022-08-20T01:31:57;11.35;;;7.55;;
41964;SDS011;50120;53.250;8.702;2022-08-20T01:34:25;13.30;;;7.95;;
41964;SDS011;50120;53.250;8.702;2022-08-20T01:36:53;12.68;;;8.38;;
41964;SDS011;50120;53.250;8.702;2022-08-20T01:39:23;13.60;;;8.38;;
41964;SDS011;50120;53.250;8.702;2022-08-20T01:42:08;18.42;;;9.23;;
41964;SDS011;50120;53.250;8.702;2022-08-20T01:44:40;16.08;;;8.45;;
41964;SDS011;50120;53.250;8.702;2022-08-20T01:47:12;16.88;;;9.20;;
41964;SDS011;50120;53.250;8.702;2022-08-20T01:49:42;23.52;;;10.00;;
41964;SDS011;50120;53.250;8.702;2022-08-20T01:52:20;22.70;;;10.30;;
41964;SDS011;50120;53.250;8.702;2022-08-20T01:54:57;23.33;;;9.88;;
41964;SDS011;50120;53.250;8.702;2022-08-20T01:57:24;17.75;;;9.98;;
41964;SDS011;50120;53.250;8.702;2022-08-20T01:59:51;17.27;;;10.25;;
41964;SDS011;50120;53.250;8.702;2022-08-20T02:02:18;22.42;;;11.05;;
41964;SDS011;50120;53.250;8.702;2022-08-20T02:04:44;20.52;;;10.57;;
41964;SDS011;50120;53.250;8.702;2022-08-20T02:07:15;18.02;;;10.40;;
41964;SDS011;50120;53.250;8.702;2022-08-20T02:09:44;20.55;;;11.13;;
41964;SDS011;50120;53.250;8.702;2022-08-20T02:12:10;16.92;;;9.88;;
41964;SDS011;50120;53.250;8.702;2022-08-20T02:14:48;19.88;;;9.90;;
41964;SDS011;50120;53.250;8.702;2022-08-20T02:17:16;24.85;;;10.75;;
41964;SDS011;50120;53.250;8.702;2022-08-20T02:19:53;21.92;;;10.55;;
41964;SDS011;50120;53.250;8.702;2022-08-20T02:22:36;28.77;;;11.85;;
41964;SDS011;50120;53.250;8.702;2022-08-20T02:25:08;21.00;;;10.40;;
41964;SDS011;50120;53.250;8.702;2022-08-20T02:27:35;31.88;;;12.32;;
41964;SDS011;50120;53.250;8.702;2022-08-20T02:30:09;26.00;;;12.57;;
41964;SDS011;50120;53.250;8.702;2022-08-20T02:37:33;22.30;;;10.15;;
41964;SDS011;50120;53.250;8.702;2022-08-20T02:40:00;30.13;;;13.00;;
41964;SDS011;50120;53.250;8.702;2022-08-20T02:42:32;27.85;;;12.98;;
41964;SDS011;50120;53.250;8.702;2022-08-20T02:44:59;31.02;;;12.88;;
41964;SDS011;50120;53.250;8.702;2022-08-20T02:47:24;23.33;;;11.65;;
41964;SDS011;50120;53.250;8.702;2022-08-20T02:49:52;21.25;;;11.35;;
41964;SDS011;50120;53.250;8.702;2022-08-20T02:52:19;22.92;;;11.07;;
41964;SDS011;50120;53.250;8.702;2022-08-20T02:54:45;23.48;;;11.65;;
41964;SDS011;50120;53.250;8.702;2022-08-20T02:57:13;26.92;;;12.40;;
41964;SDS011;50120;53.250;8.702;2022-08-20T02:59:41;28.85;;;12.00;;
41964;SDS011;50120;53.250;8.702;2022-08-20T03:02:08;28.67;;;12.55;;
41964;SDS011;50120;53.250;8.702;2022-08-20T03:04:36;25.38;;;11.20;;
41964;SDS011;50120;53.250;8.702;2022-08-20T03:07:02;23.67;;;11.13;;
41964;SDS011;50120;53.250;8.702;2022-08-20T03:09:29;26.88;;;11.18;;
41964;SDS011;50120;53.250;8.702;2022-08-20T03:11:57;24.27;;;11.23;;
41964;SDS011;50120;53.250;8.702;2022-08-20T03:14:23;23.75;;;10.82;;
41964;SDS011;50120;53.250;8.702;2022-08-20T03:16:49;25.83;;;12.27;;
41964;SDS011;50120;53.250;8.702;2022-08-20T03:19:15;21.08;;;10.77;;
41964;SDS011;50120;53.250;8.702;2022-08-20T03:21:41;22.90;;;11.05;;
41964;SDS011;50120;53.250;8.702;2022-08-20T03:24:07;28.55;;;11.95;;
41964;SDS011;50120;53.250;8.702;2022-08-20T03:26:32;22.23;;;10.70;;
41964;SDS011;50120;53.250;8.702;2022-08-20T03:28:58;32.53;;;12.85;;
41964;SDS011;50120;53.250;8.702;2022-08-20T03:31:24;27.20;;;12.15;;
41964;SDS011;50120;53.250;8.702;2022-08-20T03:33:50;24.20;;;11.50;;
41964;SDS011;50120;53.250;8.702;2022-08-20T03:36:16;23.55;;;11.45;;
41964;SDS011;50120;53.250;8.702;2022-08-20T03:38:44;22.70;;;11.00;;
41964;SDS011;50120;53.250;8.702;2022-08-20T03:41:10;36.45;;;12.73;;
41964;SDS011;50120;53.250;8.702;2022-08-20T03:43:36;22.27;;;10.75;;
41964;SDS011;50120;53.250;8.702;2022-08-20T03:46:02;26.10;;;12.05;;
41964;SDS011;50120;53.250;8.702;2022-08-20T03:48:28;32.05;;;11.50;;
41964;SDS011;50120;53.250;8.702;2022-08-20T03:50:54;26.75;;;11.02;;
41964;SDS011;50120;53.250;8.702;2022-08-20T03:53:22;26.40;;;11.95;;
41964;SDS011;50120;53.250;8.702;2022-08-20T03:55:50;26.38;;;12.82;;
41964;SDS011;50120;53.250;8.702;2022-08-20T03:58:20;28.48;;;11.95;;
41964;SDS011;50120;53.250;8.702;2022-08-20T04:00:48;27.13;;;12.13;;
41964;SDS011;50120;53.250;8.702;2022-08-20T04:03:15;33.13;;;12.18;;
41964;SDS011;50120;53.250;8.702;2022-08-20T04:05:42;32.38;;;12.35;;
41964;SDS011;50120;53.250;8.702;2022-08-20T04:08:13;33.53;;;13.00;;
41964;SDS011;50120;53.250;8.702;2022-08-20T04:10:42;33.75;;;14.07;;
41964;SDS011;50120;53.250;8.702;2022-08-20T04:13:10;38.25;;;13.98;;
41964;SDS011;50120;53.250;8.702;2022-08-20T04:15:36;37.33;;;14.23;;
41964;SDS011;50120;53.250;8.702;2022-08-20T04:18:04;37.38;;;14.40;;
41964;SDS011;50120;53.250;8.702;2022-08-20T04:20:32;33.63;;;14.65;;
41964;SDS011;50120;53.250;8.702;2022-08-20T04:23:00;40.75;;;14.25;;
41964;SDS011;50120;53.250;8.702;2022-08-20T04:25:27;43.55;;;16.58;;
41964;SDS011;50120;53.250;8.702;2022-08-20T04:27:56;38.10;;;15.38;;
41964;SDS011;50120;53.250;8.702;2022-08-20T04:30:22;32.90;;;15.15;;
41964;SDS011;50120;53.250;8.702;2022-08-20T04:32:49;51.97;;;17.23;;
41964;SDS011;50120;53.250;8.702;2022-08-20T04:35:16;44.65;;;17.00;;
41964;SDS011;50120;53.250;8.702;2022-08-20T04:37:46;47.97;;;15.98;;
41964;SDS011;50120;53.250;8.702;2022-08-20T04:40:16;38.95;;;15.30;;
41964;SDS011;50120;53.250;8.702;2022-08-20T04:43:02;34.75;;;15.52;;
41964;SDS011;50120;53.250;8.702;2022-08-20T04:45:29;34.90;;;16.67;;
41964;SDS011;50120;53.250;8.702;2022-08-20T04:47:55;37.85;;;15.90;;
41964;SDS011;50120;53.250;8.702;2022-08-20T04:50:22;41.40;;;16.20;;
41964;SDS011;50120;53.250;8.702;2022-08-20T04:52:48;40.92;;;16.95;;
41964;SDS011;50120;53.250;8.702;2022-08-20T04:55:15;41.42;;;16.40;;
41964;SDS011;50120;53.250;8.702;2022-08-20T04:57:42;36.97;;;14.85;;
41964;SDS011;50120;53.250;8.702;2022-08-20T05:00:09;48.50;;;16.05;;
41964;SDS011;50120;53.250;8.702;2022-08-20T05:02:39;43.50;;;16.95;;
41964;SDS011;50120;53.250;8.702;2022-08-20T05:05:06;37.65;;;16.02;;
41964;SDS011;50120;53.250;8.702;2022-08-20T05:07:36;42.85;;;17.70;;
41964;SDS011;50120;53.250;8.702;2022-08-20T05:10:07;38.72;;;16.05;;
41964;SDS011;50120;53.250;8.702;2022-08-20T05:12:35;46.90;;;16.67;;
41964;SDS011;50120;53.250;8.702;2022-08-20T05:15:02;34.60;;;14.73;;
41964;SDS011;50120;53.250;8.702;2022-08-20T05:17:29;45.08;;;16.88;;
41964;SDS011;50120;53.250;8.702;2022-08-20T05:19:55;36.95;;;15.90;;
41964;SDS011;50120;53.250;8.702;2022-08-20T05:22:23;41.90;;;16.77;;
41964;SDS011;50120;53.250;8.702;2022-08-20T05:24:48;48.28;;;18.95;;
41964;SDS011;50120;53.250;8.702;2022-08-20T05:27:17;39.45;;;17.42;;
41964;SDS011;50120;53.250;8.702;2022-08-20T05:29:43;40.95;;;17.00;;
41964;SDS011;50120;53.250;8.702;2022-08-20T05:32:10;50.13;;;19.40;;
41964;SDS011;50120;53.250;8.702;2022-08-20T05:34:36;54.60;;;19.33;;
41964;SDS011;50120;53.250;8.702;2022-08-20T05:37:02;48.88;;;18.85;;
41964;SDS011;50120;53.250;8.702;2022-08-20T05:39:29;53.03;;;19.95;;
41964;SDS011;50120;53.250;8.702;2022-08-20T05:41:55;56.67;;;21.50;;
41964;SDS011;50120;53.250;8.702;2022-08-20T05:44:21;65.55;;;25.17;;
41964;SDS011;50120;53.250;8.702;2022-08-20T05:46:47;81.95;;;24.85;;
41964;SDS011;50120;53.250;8.702;2022-08-20T05:49:18;71.78;;;22.60;;
41964;SDS011;50120;53.250;8.702;2022-08-20T05:51:45;70.90;;;22.23;;
41964;SDS011;50120;53.250;8.702;2022-08-20T05:54:13;64.68;;;23.98;;
41964;SDS011;50120;53.250;8.702;2022-08-20T05:56:39;88.93;;;23.08;;
41964;SDS011;50120;53.250;8.702;2022-08-20T05:59:07;63.08;;;22.55;;
41964;SDS011;50120;53.250;8.702;2022-08-20T06:01:34;59.33;;;22.77;;
41964;SDS011;50120;53.250;8.702;2022-08-20T06:04:02;55.72;;;20.63;;
41964;SDS011;50120;53.250;8.702;2022-08-20T06:06:47;60.25;;;24.67;;
41964;SDS011;50120;53.250;8.702;2022-08-20T06:09:31;47.97;;;19.10;;
41964;SDS011;50120;53.250;8.702;2022-08-20T06:12:02;49.92;;;21.27;;
41964;SDS011;50120;53.250;8.702;2022-08-20T06:14:30;50.72;;;20.05;;
41964;SDS011;50120;53.250;8.702;2022-08-20T06:17:03;48.80;;;21.20;;
41964;SDS011;50120;53.250;8.702;2022-08-20T06:19:40;45.30;;;19.90;;
41964;SDS011;50120;53.250;8.702;2022-08-20T06:22:07;43.83;;;20.40;;
41964;SDS011;50120;53.250;8.702;2022-08-20T06:24:32;43.17;;;20.35;;
41964;SDS011;50120;53.250;8.702;2022-08-20T06:26:59;54.00;;;24.33;;
41964;SDS011;50120;53.250;8.702;2022-08-20T06:29:28;47.42;;;21.27;;
41964;SDS011;50120;53.250;8.702;2022-08-20T06:31:55;45.47;;;21.23;;
41964;SDS011;50120;53.250;8.702;2022-08-20T06:34:21;49.63;;;21.80;;
41964;SDS011;50120;53.250;8.702;2022-08-20T06:36:52;44.55;;;19.48;;
41964;SDS011;50120;53.250;8.702;2022-08-20T06:39:20;47.95;;;21.20;;
41964;SDS011;50120;53.250;8.702;2022-08-20T06:41:47;41.85;;;17.90;;
41964;SDS011;50120;53.250;8.702;2022-08-20T06:44:16;43.40;;;19.52;;
41964;SDS011;50120;53.250;8.702;2022-08-20T06:46:43;49.53;;;23.50;;
41964;SDS011;50120;53.250;8.702;2022-08-20T06:49:09;40.97;;;18.95;;
41964;SDS011;50120;53.250;8.702;2022-08-20T06:51:36;40.80;;;19.77;;
41964;SDS011;50120;53.250;8.702;2022-08-20T06:54:02;38.85;;;17.30;;
41964;SDS011;50120;53.250;8.702;2022-08-20T06:56:29;39.83;;;19.60;;
41964;SDS011;50120;53.250;8.702;2022-08-20T06:58:56;36.17;;;18.15;;
41964;SDS011;50120;53.250;8.702;2022-08-20T07:01:22;33.05;;;17.65;;
41964;SDS011;50120;53.250;8.702;2022-08-20T07:03:48;28.88;;;16.05;;
41964;SDS011;50120;53.250;8.702;2022-08-20T07:06:14;37.95;;;19.25;;
41964;SDS011;50120;53.250;8.702;2022-08-20T07:08:41;31.60;;;17.30;;
41964;SDS011;50120;53.250;8.702;2022-08-20T07:11:07;36.97;;;17.20;;
41964;SDS011;50120;53.250;8.702;2022-08-20T07:13:35;22.63;;;12.13;;
41964;SDS011;50120;53.250;8.702;2022-08-20T07:16:02;21.60;;;10.98;;
41964;SDS011;50120;53.250;8.702;2022-08-20T07:18:29;15.15;;;8.38;;
41964;SDS011;50120;53.250;8.702;2022-08-20T07:20:56;14.65;;;8.30;;
41964;SDS011;50120;53.250;8.702;2022-08-20T07:23:23;15.80;;;7.47;;
41964;SDS011;50120;53.250;8.702;2022-08-20T07:25:50;21.45;;;7.22;;
41964;SDS011;50120;53.250;8.702;2022-08-20T07:28:21;19.33;;;6.43;;
41964;SDS011;50120;53.250;8.702;2022-08-20T07:30:49;11.32;;;5.55;;
41964;SDS011;50120;53.250;8.702;2022-08-20T07:33:34;15.70;;;5.70;;
41964;SDS011;50120;53.250;8.702;2022-08-20T07:36:02;12.88;;;6.15;;
41964;SDS011;50120;53.250;8.702;2022-08-20T07:38:29;12.77;;;6.00;;
41964;SDS011;50120;53.250;8.702;2022-08-20T07:41:06;21.33;;;6.30;;
41964;SDS011;50120;53.250;8.702;2022-08-20T07:43:37;14.77;;;6.20;;
41964;SDS011;50120;53.250;8.702;2022-08-20T07:46:04;12.45;;;6.40;;
41964;SDS011;50120;53.250;8.702;2022-08-20T07:48:31;14.02;;;6.88;;
41964;SDS011;50120;53.250;8.702;2022-08-20T07:50:58;17.33;;;6.95;;
41964;SDS011;50120;53.250;8.702;2022-08-20T07:53:27;19.40;;;6.55;;
41964;SDS011;50120;53.250;8.702;2022-08-20T07:55:53;17.77;;;5.65;;
41964;SDS011;50120;53.250;8.702;2022-08-20T07:58:20;15.07;;;5.63;;
41964;SDS011;50120;53.250;8.702;2022-08-20T08:00:48;17.75;;;6.00;;
41964;SDS011;50120;53.250;8.702;2022-08-20T08:03:14;11.65;;;5.55;;
41964;SDS011;50120;53.250;8.702;2022-08-20T08:05:41;13.90;;;5.80;;
41964;SDS011;50120;53.250;8.702;2022-08-20T08:08:09;13.85;;;5.45;;
41964;SDS011;50120;53.250;8.702;2022-08-20T08:10:39;10.10;;;5.57;;
41964;SDS011;50120;53.250;8.702;2022-08-20T08:13:06;12.38;;;5.75;;
41964;SDS011;50120;53.250;8.702;2022-08-20T08:15:36;13.95;;;4.93;;
41964;SDS011;50120;53.250;8.702;2022-08-20T08:18:07;10.98;;;4.82;;
41964;SDS011;50120;53.250;8.702;2022-08-20T08:20:39;14.15;;;4.85;;
41964;SDS011;50120;53.250;8.702;2022-08-20T08:23:11;9.35;;;4.68;;
41964;SDS011;50120;53.250;8.702;2022-08-20T08:25:40;12.07;;;4.85;;
41964;SDS011;50120;53.250;8.702;2022-08-20T08:28:09;11.75;;;3.85;;
41964;SDS011;50120;53.250;8.702;2022-08-20T08:30:36;12.98;;;4.60;;
41964;SDS011;50120;53.250;8.702;2022-08-20T08:33:04;12.73;;;4.40;;
41964;SDS011;50120;53.250;8.702;2022-08-20T08:35:48;10.55;;;4.32;;
41964;SDS011;50120;53.250;8.702;2022-08-20T08:38:14;12.05;;;4.15;;
41964;SDS011;50120;53.250;8.702;2022-08-20T08:40:41;11.38;;;3.95;;
41964;SDS011;50120;53.250;8.702;2022-08-20T08:43:09;10.07;;;3.20;;
41964;SDS011;50120;53.250;8.702;2022-08-20T08:45:39;12.63;;;3.90;;
41964;SDS011;50120;53.250;8.702;2022-08-20T08:48:12;10.38;;;3.88;;
41964;SDS011;50120;53.250;8.702;2022-08-20T08:50:40;11.05;;;3.13;;
41964;SDS011;50120;53.250;8.702;2022-08-20T08:53:14;11.20;;;3.05;;
41964;SDS011;50120;53.250;8.702;2022-08-20T08:55:46;7.82;;;3.00;;
41964;SDS011;50120;53.250;8.702;2022-08-20T08:58:13;9.40;;;2.80;;
41964;SDS011;50120;53.250;8.702;2022-08-20T09:00:38;7.70;;;2.50;;
41964;SDS011;50120;53.250;8.702;2022-08-20T09:03:06;7.97;;;2.45;;
41964;SDS011;50120;53.250;8.702;2022-08-20T09:05:43;7.15;;;2.38;;
41964;SDS011;50120;53.250;8.702;2022-08-20T09:08:13;8.45;;;2.05;;
41964;SDS011;50120;53.250;8.702;2022-08-20T09:10:43;7.53;;;2.25;;
41964;SDS011;50120;53.250;8.702;2022-08-20T09:13:10;12.98;;;2.33;;
41964;SDS011;50120;53.250;8.702;2022-08-20T09:15:37;12.13;;;1.90;;
41964;SDS011;50120;53.250;8.702;2022-08-20T09:18:03;10.57;;;2.03;;
41964;SDS011;50120;53.250;8.702;2022-08-20T09:20:29;5.63;;;1.70;;
41964;SDS011;50120;53.250;8.702;2022-08-20T09:22:56;7.47;;;1.25;;
41964;SDS011;50120;53.250;8.702;2022-08-20T09:25:22;6.18;;;1.40;;
41964;SDS011;50120;53.250;8.702;2022-08-20T09:27:48;6.38;;;1.30;;
41964;SDS011;50120;53.250;8.702;2022-08-20T09:30:14;4.85;;;1.30;;
41964;SDS011;50120;53.250;8.702;2022-08-20T09:32:40;5.10;;;1.20;;
41964;SDS011;50120;53.250;8.702;2022-08-20T09:35:07;7.95;;;1.60;;
41964;SDS011;50120;53.250;8.702;2022-08-20T09:37:34;4.82;;;1.30;;
41964;SDS011;50120;53.250;8.702;2022-08-20T09:40:00;5.05;;;1.35;;
41964;SDS011;50120;53.250;8.702;2022-08-20T09:42:27;6.13;;;1.35;;
41964;SDS011;50120;53.250;8.702;2022-08-20T09:44:54;5.88;;;1.40;;
41964;SDS011;50120;53.250;8.702;2022-08-20T09:47:21;7.32;;;1.17;;
41964;SDS011;50120;53.250;8.702;2022-08-20T09:49:47;5.32;;;1.40;;
41964;SDS011;50120;53.250;8.702;2022-08-20T09:52:21;6.50;;;1.30;;
41964;SDS011;50120;53.250;8.702;2022-08-20T09:54:50;4.53;;;1.20;;
41964;SDS011;50120;53.250;8.702;2022-08-20T09:57:18;4.72;;;1.10;;
41964;SDS011;50120;53.250;8.702;2022-08-20T09:59:45;5.53;;;1.05;;
41964;SDS011;50120;53.250;8.702;2022-08-20T10:02:16;4.72;;;1.00;;
41964;SDS011;50120;53.250;8.702;2022-08-20T10:04:42;4.00;;;1.02;;
41964;SDS011;50120;53.250;8.702;2022-08-20T10:07:08;3.95;;;1.00;;
41964;SDS011;50120;53.250;8.702;2022-08-20T10:09:34;4.28;;;1.10;;
41964;SDS011;50120;53.250;8.702;2022-08-20T10:12:01;3.58;;;1.02;;
41964;SDS011;50120;53.250;8.702;2022-08-20T10:14:29;4.30;;;1.35;;
41964;SDS011;50120;53.250;8.702;2022-08-20T10:16:56;4.80;;;1.00;;
41964;SDS011;50120;53.250;8.702;2022-08-20T10:19:24;4.10;;;0.80;;
41964;SDS011;50120;53.250;8.702;2022-08-20T10:21:51;3.00;;;1.00;;
41964;SDS011;50120;53.250;8.702;2022-08-20T10:24:17;4.82;;;1.10;;
41964;SDS011;50120;53.250;8.702;2022-08-20T10:26:45;3.15;;;1.10;;
41964;SDS011;50120;53.250;8.702;2022-08-20T10:29:12;3.35;;;1.08;;
41964;SDS011;50120;53.250;8.702;2022-08-20T10:31:38;8.65;;;1.15;;
41964;SDS011;50120;53.250;8.702;2022-08-20T10:34:05;5.50;;;1.15;;
41964;SDS011;50120;53.250;8.702;2022-08-20T10:36:31;3.30;;;0.90;;
41964;SDS011;50120;53.250;8.702;2022-08-20T10:38:56;5.07;;;0.98;;
41964;SDS011;50120;53.250;8.702;2022-08-20T10:41:22;5.40;;;1.40;;
41964;SDS011;50120;53.250;8.702;2022-08-20T10:43:48;4.78;;;1.05;;
41964;SDS011;50120;53.250;8.702;2022-08-20T10:46:14;4.85;;;1.00;;
41964;SDS011;50120;53.250;8.702;2022-08-20T10:48:41;7.03;;;1.20;;
41964;SDS011;50120;53.250;8.702;2022-08-20T10:51:07;6.38;;;1.25;;
41964;SDS011;50120;53.250;8.702;2022-08-20T10:53:33;9.52;;;1.33;;
41964;SDS011;50120;53.250;8.702;2022-08-20T10:55:59;3.63;;;0.82;;
41964;SDS011;50120;53.250;8.702;2022-08-20T10:58:26;4.20;;;1.20;;
41964;SDS011;50120;53.250;8.702;2022-08-20T11:00:52;4.38;;;1.13;;
41964;SDS011;50120;53.250;8.702;2022-08-20T11:03:18;8.45;;;1.38;;
41964;SDS011;50120;53.250;8.702;2022-08-20T11:05:44;4.50;;;0.93;;
41964;SDS011;50120;53.250;8.702;2022-08-20T11:08:11;4.05;;;0.88;;
41964;SDS011;50120;53.250;8.702;2022-08-20T11:10:37;3.60;;;1.00;;
41964;SDS011;50120;53.250;8.702;2022-08-20T11:13:04;7.80;;;1.40;;
41964;SDS011;50120;53.250;8.702;2022-08-20T11:15:32;5.43;;;0.82;;
41964;SDS011;50120;53.250;8.702;2022-08-20T11:18:00;3.65;;;1.10;;
41964;SDS011;50120;53.250;8.702;2022-08-20T11:20:26;8.05;;;1.45;;
41964;SDS011;50120;53.250;8.702;2022-08-20T11:22:52;4.47;;;1.13;;
41964;SDS011;50120;53.250;8.702;2022-08-20T11:25:19;3.50;;;1.00;;
41964;SDS011;50120;53.250;8.702;2022-08-20T11:27:46;5.25;;;1.50;;
41964;SDS011;50120;53.250;8.702;2022-08-20T11:30:15;4.30;;;0.95;;
41964;SDS011;50120;53.250;8.702;2022-08-20T11:32:47;4.38;;;1.08;;
41964;SDS011;50120;53.250;8.702;2022-08-20T11:35:14;3.85;;;0.93;;
41964;SDS011;50120;53.250;8.702;2022-08-20T11:37:40;3.80;;;1.02;;
41964;SDS011;50120;53.250;8.702;2022-08-20T11:40:06;10.02;;;1.10;;
41964;SDS011;50120;53.250;8.702;2022-08-20T11:42:33;4.00;;;0.88;;
41964;SDS011;50120;53.250;8.702;2022-08-20T11:44:59;3.33;;;0.90;;
41964;SDS011;50120;53.250;8.702;2022-08-20T11:47:26;6.93;;;1.00;;
41964;SDS011;50120;53.250;8.702;2022-08-20T11:49:58;4.00;;;0.85;;
41964;SDS011;50120;53.250;8.702;2022-08-20T11:52:29;3.15;;;1.30;;
41964;SDS011;50120;53.250;8.702;2022-08-20T11:54:56;5.75;;;1.13;;
41964;SDS011;50120;53.250;8.702;2022-08-20T11:57:23;3.35;;;1.10;;
41964;SDS011;50120;53.250;8.702;2022-08-20T11:59:55;4.18;;;1.13;;
41964;SDS011;50120;53.250;8.702;2022-08-20T12:02:23;3.58;;;0.80;;
41964;SDS011;50120;53.250;8.702;2022-08-20T12:04:50;3.40;;;0.90;;
41964;SDS011;50120;53.250;8.702;2022-08-20T12:07:17;2.97;;;0.70;;
41964;SDS011;50120;53.250;8.702;2022-08-20T12:09:49;4.53;;;1.02;;
41964;SDS011;50120;53.250;8.702;2022-08-20T12:12:17;4.72;;;0.90;;
41964;SDS011;50120;53.250;8.702;2022-08-20T12:14:44;4.93;;;1.08;;
41964;SDS011;50120;53.250;8.702;2022-08-20T12:17:11;3.88;;;0.95;;
41964;SDS011;50120;53.250;8.702;2022-08-20T12:19:46;4.75;;;1.20;;
41964;SDS011;50120;53.250;8.702;2022-08-20T12:22:12;4.35;;;1.10;;
41964;SDS011;50120;53.250;8.702;2022-08-20T12:24:38;5.15;;;1.27;;
41964;SDS011;50120;53.250;8.702;2022-08-20T12:27:14;4.30;;;1.00;;
41964;SDS011;50120;53.250;8.702;2022-08-20T12:29:46;2.55;;;0.70;;
41964;SDS011;50120;53.250;8.702;2022-08-20T12:32:13;5.30;;;1.33;;
41964;SDS011;50120;53.250;8.702;2022-08-20T12:34:39;3.42;;;0.85;;
41964;SDS011;50120;53.250;8.702;2022-08-20T12:37:09;4.35;;;0.85;;
41964;SDS011;50120;53.250;8.702;2022-08-20T12:39:40;4.28;;;0.80;;
41964;SDS011;50120;53.250;8.702;2022-08-20T12:42:08;5.10;;;0.93;;
41964;SDS011;50120;53.250;8.702;2022-08-20T12:44:35;5.63;;;0.90;;
41964;SDS011;50120;53.250;8.702;2022-08-20T12:49:35;4.05;;;0.98;;
41964;SDS011;50120;53.250;8.702;2022-08-20T12:52:03;5.60;;;1.30;;
41964;SDS011;50120;53.250;8.702;2022-08-20T12:54:29;3.90;;;0.98;;
41964;SDS011;50120;53.250;8.702;2022-08-20T12:56:55;6.57;;;0.90;;
41964;SDS011;50120;53.250;8.702;2022-08-20T12:59:22;2.17;;;0.60;;
41964;SDS011;50120;53.250;8.702;2022-08-20T13:01:49;3.50;;;0.80;;
41964;SDS011;50120;53.250;8.702;2022-08-20T13:04:15;2.88;;;1.00;;
41964;SDS011;50120;53.250;8.702;2022-08-20T13:06:42;3.28;;;1.05;;
41964;SDS011;50120;53.250;8.702;2022-08-20T13:09:08;4.72;;;0.98;;
41964;SDS011;50120;53.250;8.702;2022-08-20T13:11:34;2.22;;;0.70;;
41964;SDS011;50120;53.250;8.702;2022-08-20T13:14:01;3.63;;;0.70;;
41964;SDS011;50120;53.250;8.702;2022-08-20T13:16:26;4.63;;;0.80;;
41964;SDS011;50120;53.250;8.702;2022-08-20T13:18:52;3.78;;;0.93;;
41964;SDS011;50120;53.250;8.702;2022-08-20T13:21:18;3.95;;;1.10;;
41964;SDS011;50120;53.250;8.702;2022-08-20T13:23:44;2.13;;;0.60;;
41964;SDS011;50120;53.250;8.702;2022-08-20T13:26:09;3.67;;;0.90;;
41964;SDS011;50120;53.250;8.702;2022-08-20T13:28:35;3.22;;;0.82;;
41964;SDS011;50120;53.250;8.702;2022-08-20T13:31:07;4.57;;;1.08;;
41964;SDS011;50120;53.250;8.702;2022-08-20T13:33:45;2.67;;;0.90;;
41964;SDS011;50120;53.250;8.702;2022-08-20T13:36:11;5.25;;;1.20;;
41964;SDS011;50120;53.250;8.702;2022-08-20T13:38:38;3.67;;;0.90;;
41964;SDS011;50120;53.250;8.702;2022-08-20T13:41:04;4.35;;;0.80;;
41964;SDS011;50120;53.250;8.702;2022-08-20T13:43:36;2.92;;;0.98;;
41964;SDS011;50120;53.250;8.702;2022-08-20T13:46:02;4.35;;;0.95;;
41964;SDS011;50120;53.250;8.702;2022-08-20T13:48:29;3.40;;;0.90;;
41964;SDS011;50120;53.250;8.702;2022-08-20T13:50:55;3.45;;;1.15;;
41964;SDS011;50120;53.250;8.702;2022-08-20T13:53:20;3.20;;;1.00;;
41964;SDS011;50120;53.250;8.702;2022-08-20T13:55:46;3.53;;;1.00;;
41964;SDS011;50120;53.250;8.702;2022-08-20T13:58:12;5.22;;;0.98;;
41964;SDS011;50120;53.250;8.702;2022-08-20T14:00:38;3.70;;;0.68;;
41964;SDS011;50120;53.250;8.702;2022-08-20T14:03:05;3.50;;;0.70;;
41964;SDS011;50120;53.250;8.702;2022-08-20T14:05:32;2.38;;;0.70;;
41964;SDS011;50120;53.250;8.702;2022-08-20T14:10:32;2.72;;;0.80;;
41964;SDS011;50120;53.250;8.702;2022-08-20T14:12:58;4.00;;;1.25;;
41964;SDS011;50120;53.250;8.702;2022-08-20T14:15:24;3.10;;;1.00;;
41964;SDS011;50120;53.250;8.702;2022-08-20T14:17:51;4.38;;;1.00;;
41964;SDS011;50120;53.250;8.702;2022-08-20T14:23:49;3.65;;;0.90;;
41964;SDS011;50120;53.250;8.702;2022-08-20T14:43:54;2.97;;;0.60;;
41964;SDS011;50120;53.250;8.702;2022-08-20T14:46:21;5.40;;;0.70;;
41964;SDS011;50120;53.250;8.702;2022-08-20T14:48:47;3.25;;;0.70;;
41964;SDS011;50120;53.250;8.702;2022-08-20T14:51:15;4.78;;;0.98;;
41964;SDS011;50120;53.250;8.702;2022-08-20T14:56:38;3.15;;;0.90;;
41964;SDS011;50120;53.250;8.702;2022-08-20T14:59:06;4.30;;;1.10;;
41964;SDS011;50120;53.250;8.702;2022-08-20T15:01:39;5.45;;;0.80;;
41964;SDS011;50120;53.250;8.702;2022-08-20T15:04:05;2.88;;;0.95;;
41964;SDS011;50120;53.250;8.702;2022-08-20T15:06:34;4.85;;;0.95;;
41964;SDS011;50120;53.250;8.702;2022-08-20T15:08:59;4.22;;;0.98;;
41964;SDS011;50120;53.250;8.702;2022-08-20T15:11:26;3.88;;;0.95;;
41964;SDS011;50120;53.250;8.702;2022-08-20T15:14:01;3.88;;;0.95;;
41964;SDS011;50120;53.250;8.702;2022-08-20T15:16:27;4.22;;;1.17;;
41964;SDS011;50120;53.250;8.702;2022-08-20T15:18:53;7.20;;;1.00;;
41964;SDS011;50120;53.250;8.702;2022-08-20T15:21:19;4.32;;;0.93;;